Time;durP1;ratioP1;P1;durP2;ratioP2;P2;SDS_P1;SDS_P2;PMS_P1;PMS_P2;Temp;Humidity;BMP_temperature;BMP_pressure;BME280_temperature;BME280_humidity;BME280_pressure;Samples;Min_cycle;Max_cycle;Signal;HPM_P1;HPM_P2
2023/10/30 00:02:10;;;;;;;1999.90;999.90;;;;;;;10.94;77.98;96881.94;5157944;27;20043;-63
2023/10/30 00:04:38;;;;;;;1999.90;999.90;;;;;;;10.85;78.32;96875.25;5157902;27;20502;-63
2023/10/30 00:07:05;;;;;;;1999.90;999.90;;;;;;;10.91;78.51;96880.28;5157883;27;20103;-62
2023/10/30 00:09:33;;;;;;;1999.90;999.90;;;;;;;10.94;77.88;96871.47;5157658;27;20480;-63
2023/10/30 00:12:00;;;;;;;1999.90;999.90;;;;;;;10.91;77.75;96872.44;5157791;27;20046;-63
2023/10/30 00:14:27;;;;;;;1999.90;999.90;;;;;;;10.89;78.37;96873.41;5157715;27;20042;-62
2023/10/30 00:16:55;;;;;;;1999.90;999.90;;;;;;;10.82;78.50;96870.97;5157461;27;20494;-63
2023/10/30 00:19:23;;;;;;;1999.90;999.90;;;;;;;10.79;80.77;96871.09;5157676;27;20046;-63
2023/10/30 00:21:51;;;;;;;1999.90;999.90;;;;;;;10.78;80.74;96869.38;5157631;27;20042;-63
2023/10/30 00:24:18;;;;;;;1999.90;999.90;;;;;;;10.79;80.11;96872.84;5157538;27;20054;-62
2023/10/30 00:26:45;;;;;;;1999.90;999.90;;;;;;;10.77;79.38;96872.06;5157470;27;20050;-63
2023/10/30 00:29:13;;;;;;;1999.90;999.90;;;;;;;10.73;77.91;96877.38;5157400;27;20476;-63
2023/10/30 00:31:40;;;;;;;1999.90;999.90;;;;;;;10.63;78.33;96868.13;5157366;27;20039;-62
2023/10/30 00:34:11;;;;;;;1999.90;999.90;;;;;;;10.65;79.74;96868.91;5157382;27;20051;-63
2023/10/30 00:36:40;;;;;;;1999.90;999.90;;;;;;;10.68;79.90;96874.06;5156971;27;20484;-62
2023/10/30 00:39:08;;;;;;;1999.90;999.90;;;;;;;10.75;79.95;96882.56;5156631;27;20055;-62
2023/10/30 00:41:35;;;;;;;1999.90;999.90;;;;;;;10.79;79.46;96876.31;5157402;27;20103;-62
2023/10/30 00:44:05;;;;;;;1999.90;999.90;;;;;;;10.82;80.72;96875.34;5157111;27;20450;-63
2023/10/30 00:46:32;;;;;;;1999.90;999.90;;;;;;;10.86;80.18;96869.97;5157194;27;20046;-63
2023/10/30 00:48:59;;;;;;;1999.90;999.90;;;;;;;10.90;80.47;96873.34;5157101;27;20078;-63
2023/10/30 00:51:27;;;;;;;1999.90;999.90;;;;;;;10.85;81.09;96870.88;5157015;27;20039;-63
2023/10/30 00:53:55;;;;;;;1999.90;999.90;;;;;;;10.97;81.98;96859.13;5156873;27;20047;-62
2023/10/30 00:56:23;;;;;;;1999.90;999.90;;;;;;;11.03;82.04;96872.91;5156992;27;20043;-63
2023/10/30 00:58:50;;;;;;;1999.90;999.90;;;;;;;11.08;82.01;96876.22;5156894;27;20042;-63
2023/10/30 01:01:17;;;;;;;1999.90;999.90;;;;;;;11.12;81.61;96875.22;5156748;27;20126;-63
2023/10/30 01:03:45;;;;;;;1999.90;999.90;;;;;;;11.12;81.65;96877.84;5156923;27;20043;-62
2023/10/30 01:06:14;;;;;;;1999.90;999.90;;;;;;;11.25;82.65;96873.00;5156861;27;20043;-63
2023/10/30 01:08:45;;;;;;;1999.90;999.90;;;;;;;11.30;83.07;96872.84;5156629;27;20046;-63
2023/10/30 01:11:15;;;;;;;1999.90;999.90;;;;;;;11.28;83.58;96867.66;5156621;27;20130;-62
2023/10/30 01:13:44;;;;;;;1999.90;999.90;;;;;;;11.39;83.95;96872.53;5156609;27;20047;-63
2023/10/30 01:16:22;;;;;;;1999.90;999.90;;;;;;;11.44;83.94;96867.97;5156498;27;20055;-63
2023/10/30 01:18:51;;;;;;;1999.90;999.90;;;;;;;11.53;83.76;96864.16;5156523;27;20051;-63
2023/10/30 01:21:26;;;;;;;1999.90;999.90;;;;;;;11.63;83.59;96865.50;5156327;27;20419;-63
2023/10/30 01:23:56;;;;;;;1999.90;999.90;;;;;;;11.73;83.02;96862.56;5156204;27;20384;-63
2023/10/30 01:26:26;;;;;;;1999.90;999.90;;;;;;;11.77;82.82;96866.75;5156309;27;20401;-63
2023/10/30 01:28:56;;;;;;;1999.90;999.90;;;;;;;11.79;82.81;96862.34;5156186;27;20043;-63
2023/10/30 01:31:27;;;;;;;1999.90;999.90;;;;;;;11.81;83.10;96867.53;5156076;27;20489;-63
2023/10/30 01:33:57;;;;;;;1999.90;999.90;;;;;;;11.86;82.82;96861.19;5156007;27;20043;-62
2023/10/30 01:36:26;;;;;;;1999.90;999.90;;;;;;;11.87;82.67;96860.25;5156046;27;20047;-63
2023/10/30 01:38:55;;;;;;;1999.90;999.90;;;;;;;11.92;82.35;96856.63;5155785;27;20111;-62
2023/10/30 01:41:26;;;;;;;1999.90;999.90;;;;;;;11.92;81.82;96861.88;5156024;27;20047;-63
2023/10/30 01:43:54;;;;;;;;;;;;;;;11.94;81.73;96857.41;5156491;27;20046;-63
2023/10/30 01:46:23;;;;;;;1999.90;999.90;;;;;;;11.90;81.57;96848.81;5155743;27;19919;-62
2023/10/30 01:48:54;;;;;;;1999.90;999.90;;;;;;;11.90;81.37;96850.59;5155634;27;20046;-62
2023/10/30 01:51:26;;;;;;;1999.90;999.90;;;;;;;11.86;81.01;96853.31;5155676;27;20106;-63
2023/10/30 01:53:57;;;;;;;1999.90;999.90;;;;;;;11.82;81.33;96851.72;5155571;27;20054;-62
2023/10/30 01:56:28;;;;;;;1999.90;999.90;;;;;;;11.83;81.55;96844.75;5155607;27;20427;-63
2023/10/30 01:58:57;;;;;;;1999.90;999.90;;;;;;;11.82;80.62;96846.50;5155761;27;20117;-64
2023/10/30 02:01:33;;;;;;;1999.90;999.90;;;;;;;11.76;80.44;96849.34;5155446;27;20043;-63
2023/10/30 02:04:02;;;;;;;1999.90;999.90;;;;;;;11.61;80.50;96843.78;5155593;27;20043;-62
2023/10/30 02:06:31;;;;;;;1999.90;999.90;;;;;;;11.53;80.91;96843.19;5155289;27;20055;-63
2023/10/30 02:09:01;;;;;;;1999.90;999.90;;;;;;;11.43;80.86;96845.31;5155401;27;20129;-63
2023/10/30 02:11:32;;;;;;;1999.90;999.90;;;;;;;11.42;80.91;96850.59;5155460;27;20047;-63
2023/10/30 02:14:03;;;;;;;1999.90;999.90;;;;;;;11.41;80.59;96856.75;5155251;27;20047;-63
2023/10/30 02:16:32;;;;;;;1999.90;999.90;;;;;;;11.35;80.45;96853.44;5155175;27;20053;-62
2023/10/30 02:19:01;;;;;;;1999.90;999.90;;;;;;;11.36;80.03;96856.91;5155306;27;20408;-62
2023/10/30 02:21:30;;;;;;;1999.90;999.90;;;;;;;11.36;80.78;96860.41;5155129;27;20047;-63
2023/10/30 02:24:08;;;;;;;1999.90;999.90;;;;;;;11.29;80.68;96861.50;5155116;27;20092;-63
2023/10/30 02:26:39;;;;;;;1999.90;999.90;;;;;;;11.21;80.98;96856.56;5155102;27;20046;-63
2023/10/30 02:29:08;;;;;;;1999.90;999.90;;;;;;;11.19;81.20;96857.50;5155066;27;20050;-62
2023/10/30 02:31:36;;;;;;;1999.90;999.90;;;;;;;11.17;81.73;96852.31;5155086;27;20047;-63
2023/10/30 02:34:05;;;;;;;1999.90;999.90;;;;;;;11.14;81.57;96852.47;5154982;27;20054;-63
2023/10/30 02:36:34;;;;;;;1999.90;999.90;;;;;;;11.15;81.30;96853.28;5154862;27;20047;-63
2023/10/30 02:39:04;;;;;;;1999.90;999.90;;;;;;;11.13;80.55;96848.13;5154580;27;20488;-63
2023/10/30 02:41:33;;;;;;;1999.90;999.90;;;;;;;11.09;80.57;96843.91;5155004;27;20492;-62
2023/10/30 02:44:03;;;;;;;1999.90;999.90;;;;;;;11.07;80.27;96845.72;5154810;27;20050;-63
2023/10/30 02:46:31;;;;;;;1999.90;999.90;;;;;;;11.07;79.88;96851.81;5154975;27;20047;-63
2023/10/30 02:48:59;;;;;;;1999.90;999.90;;;;;;;10.97;80.37;96850.41;5154987;27;20050;-63
2023/10/30 02:51:27;;;;;;;1999.90;999.90;;;;;;;10.95;80.55;96855.72;5154669;27;20114;-63
2023/10/30 02:53:55;;;;;;;1999.90;999.90;;;;;;;10.92;80.67;96853.19;5154848;27;20125;-63
2023/10/30 02:56:23;;;;;;;1999.90;999.90;;;;;;;10.93;80.26;96854.06;5154674;27;20047;-63
2023/10/30 02:58:52;;;;;;;1999.90;999.90;;;;;;;10.84;80.44;96852.63;5154726;27;20050;-62
2023/10/30 03:01:24;;;;;;;1999.90;999.90;;;;;;;10.84;80.56;96857.84;5154140;27;20054;-62
2023/10/30 03:03:52;;;;;;;1999.90;999.90;;;;;;;10.86;80.07;96849.03;5154671;27;20050;-63
2023/10/30 03:06:23;;;;;;;1999.90;999.90;;;;;;;10.84;79.89;96855.22;5154734;27;20084;-63
2023/10/30 03:08:51;;;;;;;1999.90;999.90;;;;;;;10.83;79.63;96853.50;5154705;27;20058;-62
2023/10/30 03:11:20;;;;;;;1999.90;999.90;;;;;;;10.67;79.06;96835.72;5154616;27;20123;-63
2023/10/30 03:13:49;;;;;;;1999.90;999.90;;;;;;;10.75;79.23;96853.78;5154563;27;20130;-63
2023/10/30 03:16:19;;;;;;;1999.90;999.90;;;;;;;10.60;79.61;96855.16;5154527;27;20051;-63
2023/10/30 03:18:50;;;;;;;1999.90;999.90;;;;;;;10.65;80.11;96850.59;5154708;27;20542;-63
2023/10/30 03:21:19;;;;;;;1999.90;999.90;;;;;;;10.63;79.84;96844.59;5154452;27;20051;-63
2023/10/30 03:23:48;;;;;;;1999.90;999.90;;;;;;;10.65;79.60;96847.16;5154497;27;20116;-63
2023/10/30 03:26:17;;;;;;;1999.90;999.90;;;;;;;10.61;79.48;96851.63;5154467;27;20419;-63
2023/10/30 03:28:46;;;;;;;1999.90;999.90;;;;;;;10.61;78.96;96849.88;5154437;27;20119;-63
2023/10/30 03:31:14;;;;;;;1999.90;999.90;;;;;;;10.57;79.05;96847.41;5154326;27;20107;-63
2023/10/30 03:33:43;;;;;;;1999.90;999.90;;;;;;;10.58;79.18;96849.09;5154381;27;20070;-63
2023/10/30 03:36:20;;;;;;;1999.90;999.90;;;;;;;10.49;79.32;96851.13;5154222;27;20058;-64
2023/10/30 03:38:49;;;;;;;1999.90;999.90;;;;;;;10.41;80.10;96853.09;5154108;27;20050;-63
2023/10/30 03:41:19;;;;;;;1999.90;999.90;;;;;;;10.41;80.52;96849.63;5154401;27;20049;-63
2023/10/30 03:43:48;;;;;;;1999.90;999.90;;;;;;;10.37;80.31;96851.47;5154351;27;20042;-63
2023/10/30 03:46:17;;;;;;;1999.90;999.90;;;;;;;10.34;80.27;96855.06;5154352;27;20043;-64
2023/10/30 03:48:46;;;;;;;1999.90;999.90;;;;;;;10.34;79.82;96851.56;5154278;27;20484;-63
2023/10/30 03:51:17;;;;;;;1999.90;999.90;;;;;;;10.32;79.69;96849.00;5154271;27;20373;-63
2023/10/30 03:53:47;;;;;;;1999.90;999.90;;;;;;;10.32;79.70;96853.38;5154190;27;20038;-63
2023/10/30 03:56:16;;;;;;;1999.90;999.90;;;;;;;10.26;79.95;96850.97;5154074;27;20051;-63
2023/10/30 03:58:44;;;;;;;1999.90;999.90;;;;;;;10.22;80.49;96850.22;5154110;27;20130;-63
2023/10/30 04:01:14;;;;;;;1999.90;999.90;;;;;;;10.08;81.77;96851.50;5154060;27;20125;-64
2023/10/30 04:03:42;;;;;;;1999.90;999.90;;;;;;;10.03;82.06;96850.81;5154058;27;20082;-63
2023/10/30 04:06:11;;;;;;;1999.90;999.90;;;;;;;10.08;81.70;96848.88;5154103;27;20099;-63
2023/10/30 04:08:42;;;;;;;1999.90;999.90;;;;;;;10.08;80.98;96850.63;5153950;27;20510;-61
2023/10/30 04:11:11;;;;;;;;;;;;;;;10.08;81.05;96851.50;5154672;27;20051;-61
2023/10/30 04:13:39;;;;;;;1999.90;999.90;;;;;;;10.02;81.16;96848.22;5156397;27;19919;-63
2023/10/30 04:16:11;;;;;;;1999.90;999.90;;;;;;;9.98;81.90;96852.69;5157652;27;20107;-63
2023/10/30 04:18:40;;;;;;;1999.90;999.90;;;;;;;9.92;82.29;96852.88;5157606;27;20055;-63
2023/10/30 04:21:10;;;;;;;1999.90;999.90;;;;;;;9.99;82.73;96857.00;5157679;27;20129;-63
2023/10/30 04:23:42;;;;;;;1999.90;999.90;;;;;;;10.01;82.01;96854.34;5157501;27;20126;-63
2023/10/30 04:26:12;;;;;;;1999.90;999.90;;;;;;;10.03;81.53;96856.03;5157432;27;20039;-63
2023/10/30 04:28:41;;;;;;;1999.90;999.90;;;;;;;9.98;81.90;96852.69;5157497;27;20098;-62
2023/10/30 04:31:10;;;;;;;1999.90;999.90;;;;;;;10.02;82.14;96850.84;5157360;27;20043;-63
2023/10/30 04:33:40;;;;;;;1999.90;999.90;;;;;;;10.02;81.41;96859.53;5157259;27;20057;-63
2023/10/30 04:36:10;;;;;;;1999.90;999.90;;;;;;;10.04;81.11;96864.69;5157253;27;20055;-63
2023/10/30 04:38:41;;;;;;;1999.90;999.90;;;;;;;10.04;80.67;96867.31;5157034;27;20050;-63
2023/10/30 04:41:11;;;;;;;1999.90;999.90;;;;;;;10.06;80.05;96862.91;5157023;27;20042;-62
2023/10/30 04:43:41;;;;;;;1999.90;999.90;;;;;;;10.03;79.96;96865.63;5157246;27;20416;-62
2023/10/30 04:46:10;;;;;;;1999.90;999.90;;;;;;;10.02;80.18;96869.16;5157116;27;20057;-63
2023/10/30 04:48:40;;;;;;;1999.90;999.90;;;;;;;10.01;79.73;96873.50;5157132;27;20403;-63
2023/10/30 04:51:07;;;;;;;1999.90;999.90;;;;;;;10.01;79.41;96875.25;5157113;27;20065;-63
2023/10/30 04:53:35;;;;;;;1999.90;999.90;;;;;;;9.98;80.10;96868.38;5157031;27;20442;-63
2023/10/30 04:56:04;;;;;;;1999.90;999.90;;;;;;;9.96;80.72;96871.03;5156765;27;20103;-63
2023/10/30 04:58:31;;;;;;;1999.90;999.90;;;;;;;9.98;80.60;96870.97;5156884;27;20053;-63
2023/10/30 05:00:59;;;;;;;1999.90;999.90;;;;;;;9.94;81.66;96870.19;5156702;27;20162;-63
2023/10/30 05:03:26;;;;;;;1999.90;999.90;;;;;;;9.84;82.17;96868.78;5156869;27;20078;-62
2023/10/30 05:05:54;;;;;;;1999.90;999.90;;;;;;;9.76;83.00;96873.38;5156795;27;20092;-63
2023/10/30 05:08:21;;;;;;;1999.90;999.90;;;;;;;9.81;84.51;96866.28;5156730;27;20068;-63
2023/10/30 05:10:49;;;;;;;1999.90;999.90;;;;;;;9.89;85.37;96874.72;5156671;27;20483;-63
2023/10/30 05:13:18;;;;;;;1999.90;999.90;;;;;;;9.98;84.30;96868.38;5156653;27;20042;-63
2023/10/30 05:15:45;;;;;;;1999.90;999.90;;;;;;;10.07;83.87;96872.47;5156473;27;20103;-63
2023/10/30 05:18:12;;;;;;;1999.90;999.90;;;;;;;10.18;83.11;96866.91;5156414;27;20053;-63
2023/10/30 05:20:39;;;;;;;1999.90;999.90;;;;;;;10.26;82.11;96864.88;5156547;27;20057;-63
2023/10/30 05:23:07;;;;;;;1999.90;999.90;;;;;;;10.38;81.70;96874.09;5156096;27;20047;-63
2023/10/30 05:25:34;;;;;;;1999.90;999.90;;;;;;;10.48;81.76;96875.56;5156344;27;20047;-63
2023/10/30 05:28:03;;;;;;;1999.90;999.90;;;;;;;10.67;81.69;96880.19;5156338;27;20050;-63
2023/10/30 05:30:33;;;;;;;1999.90;999.90;;;;;;;11.20;80.86;96880.19;5156265;27;20091;-62
2023/10/30 05:33:00;;;;;;;1999.90;999.90;;;;;;;11.93;77.75;96884.53;5156290;27;20126;-63
2023/10/30 05:35:27;;;;;;;1999.90;999.90;;;;;;;12.74;73.91;96884.88;5156106;27;20051;-63
2023/10/30 05:37:54;;;;;;;1999.90;999.90;;;;;;;13.58;70.26;96895.44;5155969;27;20047;-63
2023/10/30 05:40:21;;;;;;;1999.90;999.90;;;;;;;14.43;66.88;96895.94;5156192;27;20093;-63
2023/10/30 05:42:49;;;;;;;1999.90;999.90;;;;;;;15.32;63.28;96899.50;5155993;27;20048;-63
2023/10/30 05:45:16;;;;;;;1999.90;999.90;;;;;;;16.17;60.38;96898.63;5155957;27;20099;-62
2023/10/30 05:47:45;;;;;;;1999.90;999.90;;;;;;;17.03;57.50;96904.38;5155885;27;20047;-63
2023/10/30 05:50:12;;;;;;;1999.90;999.90;;;;;;;17.76;55.29;96907.19;5155889;27;20552;-63
2023/10/30 05:52:39;;;;;;;1999.90;999.90;;;;;;;18.46;53.09;96905.50;5155763;27;20043;-63
2023/10/30 05:55:08;;;;;;;1999.90;999.90;;;;;;;19.15;50.90;96907.22;5155740;27;20082;-63
2023/10/30 05:57:37;;;;;;;1999.90;999.90;;;;;;;19.86;49.06;96908.63;5155570;27;20047;-64
2023/10/30 06:00:05;;;;;;;1999.90;999.90;;;;;;;20.58;47.97;96916.91;5155633;27;20404;-64
2023/10/30 06:02:32;;;;;;;1999.90;999.90;;;;;;;21.37;45.57;96917.38;5155727;27;20161;-63
2023/10/30 06:05:01;;;;;;;1999.90;999.90;;;;;;;22.06;43.94;96915.66;5155569;27;20511;-63
2023/10/30 06:07:28;;;;;;;1999.90;999.90;;;;;;;22.69;42.73;96914.25;5155525;27;20085;-63
2023/10/30 06:09:55;;;;;;;1999.90;999.90;;;;;;;23.27;41.76;96921.06;5155492;27;20047;-63
2023/10/30 06:12:23;;;;;;;1999.90;999.90;;;;;;;23.89;40.36;96922.16;5155461;27;20107;-64
2023/10/30 06:14:50;;;;;;;1999.90;999.90;;;;;;;24.48;39.38;96914.41;5155350;27;20706;-64
2023/10/30 06:17:17;;;;;;;1999.90;999.90;;;;;;;24.95;37.92;96920.97;5155278;27;20103;-62
2023/10/30 06:19:44;;;;;;;1999.90;999.90;;;;;;;25.38;37.47;96920.66;5155338;27;20051;-63
2023/10/30 06:22:12;;;;;;;1512.93;762.15;;;;;;;25.83;36.75;96925.38;5155339;27;20039;-63
2023/10/30 06:24:39;;;;;;;60.92;57.30;;;;;;;26.33;36.03;96926.06;5155238;27;20042;-63
2023/10/30 06:27:07;;;;;;;56.15;52.75;;;;;;;26.78;35.41;96923.53;5155279;27;20042;-63
2023/10/30 06:29:34;;;;;;;55.10;51.53;;;;;;;27.29;34.25;96930.25;5155135;27;20039;-63
2023/10/30 06:32:02;;;;;;;49.42;46.63;;;;;;;27.84;33.57;96928.34;5155135;27;20514;-64
2023/10/30 06:34:29;;;;;;;49.35;46.45;;;;;;;28.40;33.03;96925.25;5154802;27;20088;-64
2023/10/30 06:36:56;;;;;;;49.67;46.92;;;;;;;28.88;32.46;96933.66;5154456;27;20492;-65
2023/10/30 06:39:25;;;;;;;54.63;51.33;;;;;;;29.36;31.53;96927.66;5154706;27;20045;-63
2023/10/30 06:41:54;;;;;;;58.13;54.55;;;;;;;29.72;30.98;96928.31;5154917;27;20054;-63
2023/10/30 06:44:22;;;;;;;48.97;45.95;;;;;;;30.20;29.79;96936.50;5154905;27;20057;-64
2023/10/30 06:46:50;;;;;;;46.95;44.28;;;;;;;30.62;29.14;96929.06;5154861;27;20053;-62
2023/10/30 06:49:17;;;;;;;48.72;45.83;;;;;;;31.01;29.29;96930.06;5154860;27;20403;-63
2023/10/30 06:51:44;;;;;;;49.25;46.25;;;;;;;31.38;28.60;96937.56;5154833;27;20047;-63
2023/10/30 06:54:11;;;;;;;44.13;41.33;;;;;;;31.69;27.96;96935.78;5154939;27;20061;-63
2023/10/30 06:56:40;;;;;;;46.25;43.40;;;;;;;31.81;27.52;96936.16;5154662;27;20149;-63
2023/10/30 06:59:09;;;;;;;49.75;46.67;;;;;;;31.86;27.14;96931.03;5154850;27;20042;-61
2023/10/30 07:01:43;;;;;;;43.28;40.55;;;;;;;31.98;26.59;96929.59;5154813;27;20407;-65
2023/10/30 07:04:11;;;;;;;48.92;45.97;;;;;;;32.18;26.14;96934.44;5154810;27;20043;-64
2023/10/30 07:06:38;;;;;;;42.42;39.83;;;;;;;32.24;26.17;96938.25;5154657;27;20510;-62
2023/10/30 07:09:07;;;;;;;36.95;34.58;;;;;;;31.70;26.55;96921.22;5154698;27;20053;-63
2023/10/30 07:11:34;;;;;;;32.10;29.58;;;;;;;30.54;27.92;96930.94;5154659;27;20039;-63
2023/10/30 07:14:03;;;;;;;31.50;29.35;;;;;;;29.35;30.29;96925.97;5154689;27;20042;-64
2023/10/30 07:16:30;;;;;;;33.63;31.20;;;;;;;29.04;30.68;96921.22;5154575;27;20046;-64
2023/10/30 07:18:57;;;;;;;41.92;39.13;;;;;;;29.43;29.79;96925.13;5154413;27;20511;-64
2023/10/30 07:21:24;;;;;;;41.63;38.75;;;;;;;30.20;28.83;96920.31;5154550;27;20086;-63
2023/10/30 07:23:51;;;;;;;47.58;44.50;;;;;;;30.68;27.26;96919.41;5154667;27;20039;-64
2023/10/30 07:26:20;;;;;;;42.22;39.47;;;;;;;31.22;27.07;96925.84;5154439;27;20042;-64
2023/10/30 07:28:48;;;;;;;39.47;36.83;;;;;;;31.92;26.64;96924.03;5154500;27;20103;-64
2023/10/30 07:31:18;;;;;;;34.78;32.05;;;;;;;32.56;25.55;96930.78;5154271;27;20070;-64
2023/10/30 07:33:45;;;;;;;36.65;34.45;;;;;;;33.07;24.75;96928.25;5154364;27;20484;-64
2023/10/30 07:36:12;;;;;;;49.13;46.28;;;;;;;33.58;24.35;96927.22;5154236;27;20051;-63
2023/10/30 07:38:39;;;;;;;49.10;46.25;;;;;;;33.97;23.71;96930.47;5154145;27;20055;-62
2023/10/30 07:41:07;;;;;;;27.52;25.83;;;;;;;34.15;23.51;96929.13;5154311;27;20043;-63
2023/10/30 07:43:35;;;;;;;25.33;23.65;;;;;;;34.50;22.95;96936.41;5154390;27;20050;-64
2023/10/30 07:46:02;;;;;;;23.75;22.05;;;;;;;34.94;22.86;96928.00;5154438;27;20125;-64
2023/10/30 07:48:30;;;;;;;22.85;21.17;;;;;;;34.98;22.21;96932.00;5158246;27;20050;-62
2023/10/30 07:51:03;;;;;;;28.20;26.13;;;;;;;34.79;22.77;96929.00;5158248;27;20532;-64
2023/10/30 07:53:30;;;;;;;47.33;44.42;;;;;;;34.32;22.98;96926.94;5158229;27;20130;-63
2023/10/30 07:55:57;;;;;;;33.65;31.25;;;;;;;33.88;23.87;96920.78;5158356;27;20043;-63
2023/10/30 07:58:25;;;;;;;29.98;27.88;;;;;;;33.33;24.73;96921.38;5157985;27;20500;-64
2023/10/30 08:00:53;;;;;;;29.75;27.38;;;;;;;32.61;26.25;96919.38;5158027;27;20046;-63
2023/10/30 08:03:20;;;;;;;28.20;26.13;;;;;;;31.56;27.68;96909.34;5158085;27;20046;-63
2023/10/30 08:05:49;;;;;;;29.45;27.27;;;;;;;30.86;28.75;96910.22;5157936;27;20043;-64
2023/10/30 08:08:17;;;;;;;28.80;26.60;;;;;;;29.92;29.68;96914.47;5157853;27;20039;-64
2023/10/30 08:10:46;;;;;;;27.27;25.17;;;;;;;29.14;30.23;96900.38;5157795;27;20488;-62
2023/10/30 08:13:13;;;;;;;26.48;24.75;;;;;;;28.68;31.39;96898.09;5157762;27;20042;-64
2023/10/30 08:15:41;;;;;;;27.95;25.67;;;;;;;28.17;32.17;96901.59;5157790;27;20074;-64
2023/10/30 08:18:08;;;;;;;28.30;26.33;;;;;;;27.63;33.03;96902.63;5157598;27;20468;-63
2023/10/30 08:20:36;;;;;;;32.80;30.42;;;;;;;27.38;33.63;96897.09;5157551;27;20050;-63
2023/10/30 08:23:04;;;;;;;30.83;28.05;;;;;;;27.25;33.32;96897.50;5157628;27;20058;-63
2023/10/30 08:25:32;;;;;;;27.70;25.63;;;;;;;27.02;34.52;96897.16;5157619;27;20043;-63
2023/10/30 08:28:00;;;;;;;29.33;27.27;;;;;;;26.90;35.08;96897.34;5157552;27;20043;-63
2023/10/30 08:30:27;;;;;;;30.15;27.88;;;;;;;26.81;35.84;96898.25;5157471;27;20043;-64
2023/10/30 08:32:54;;;;;;;29.23;27.42;;;;;;;26.82;35.80;96891.91;5157261;27;20441;-62
2023/10/30 08:35:21;;;;;;;29.95;27.60;;;;;;;26.79;36.08;96892.22;5157330;27;20047;-63
2023/10/30 08:37:48;;;;;;;29.25;26.83;;;;;;;26.53;36.59;96895.63;5157060;27;20503;-63
2023/10/30 08:40:17;;;;;;;29.52;27.27;;;;;;;26.35;37.48;96896.44;5157237;27;20128;-64
2023/10/30 08:42:44;;;;;;;30.73;28.38;;;;;;;26.26;38.34;96898.16;5157211;27;20043;-63
2023/10/30 08:45:12;;;;;;;30.00;27.48;;;;;;;26.35;39.90;96897.28;5157279;27;20046;-64
2023/10/30 08:47:39;;;;;;;32.22;29.80;;;;;;;26.37;39.79;96889.91;5157134;27;20045;-62
2023/10/30 08:50:07;;;;;;;31.85;28.95;;;;;;;26.24;39.09;96892.94;5157016;27;20051;-63
2023/10/30 08:52:35;;;;;;;32.30;29.70;;;;;;;26.05;39.43;96891.19;5157087;27;20121;-63
2023/10/30 08:55:02;;;;;;;32.53;29.65;;;;;;;25.92;40.04;96894.22;5157065;27;20046;-63
2023/10/30 08:57:31;;;;;;;30.33;27.50;;;;;;;25.97;39.99;96891.94;5156819;27;20046;-62
2023/10/30 08:59:58;;;;;;;32.75;29.92;;;;;;;26.09;39.63;96892.56;5156212;27;20050;-62
2023/10/30 09:02:25;;;;;;;31.83;28.95;;;;;;;26.24;38.84;96889.41;5156897;27;20053;-62
2023/10/30 09:04:52;;;;;;;32.42;30.15;;;;;;;26.19;38.42;96886.34;5156722;27;20049;-63
2023/10/30 09:07:19;;;;;;;32.38;29.83;;;;;;;26.18;38.34;96887.31;5156775;27;20099;-62
2023/10/30 09:09:47;;;;;;;31.65;29.00;;;;;;;26.17;38.47;96897.22;5156763;27;20047;-64
2023/10/30 09:12:14;;;;;;;32.00;29.15;;;;;;;26.17;38.41;96891.00;5156603;27;20046;-64
2023/10/30 09:14:42;;;;;;;30.63;28.20;;;;;;;25.97;39.13;96881.22;5156471;27;20483;-63
2023/10/30 09:17:10;;;;;;;33.33;30.50;;;;;;;26.07;39.07;96881.16;5156521;27;20061;-64
2023/10/30 09:19:37;;;;;;;29.35;27.25;;;;;;;26.08;38.80;96880.19;5156518;27;20082;-63
2023/10/30 09:22:05;;;;;;;33.20;30.17;;;;;;;26.11;38.58;96879.03;5156538;27;20042;-62
2023/10/30 09:24:32;;;;;;;33.38;30.65;;;;;;;26.12;38.27;96881.56;5156276;27;20415;-64
2023/10/30 09:26:59;;;;;;;31.15;28.52;;;;;;;25.98;39.21;96877.53;5156363;27;20404;-64
2023/10/30 09:29:26;;;;;;;30.70;28.35;;;;;;;25.78;39.70;96870.56;5156353;27;20068;-63
2023/10/30 09:31:55;;;;;;;31.55;28.73;;;;;;;25.76;40.06;96870.72;5156314;27;20043;-63
2023/10/30 09:34:22;;;;;;;33.55;30.67;;;;;;;25.67;39.83;96869.75;5156148;27;20125;-63
2023/10/30 09:36:50;;;;;;;31.60;29.38;;;;;;;25.66;40.44;96864.53;5156066;27;20046;-64
2023/10/30 09:39:17;;;;;;;33.47;30.83;;;;;;;25.67;40.65;96861.72;5155890;27;20047;-62
2023/10/30 09:41:46;;;;;;;37.10;34.15;;;;;;;25.68;40.64;96862.56;5155957;27;20057;-65
2023/10/30 09:44:14;;;;;;;36.63;33.70;;;;;;;25.65;40.64;96860.19;5155966;27;20091;-64
2023/10/30 09:46:43;;;;;;;33.85;31.15;;;;;;;25.73;40.22;96861.13;5155964;27;20044;-63
2023/10/30 09:49:14;;;;;;;35.13;32.05;;;;;;;25.79;39.78;96856.19;5156057;27;20055;-63
2023/10/30 09:51:42;;;;;;;32.78;29.73;;;;;;;25.86;40.06;96852.75;5155809;27;20081;-64
2023/10/30 09:54:10;;;;;;;31.55;28.88;;;;;;;25.94;39.64;96851.19;5155919;27;20046;-64
2023/10/30 09:56:40;;;;;;;32.75;30.45;;;;;;;25.77;39.45;96845.63;5155706;27;20545;-62
2023/10/30 09:59:09;;;;;;;29.90;27.55;;;;;;;25.73;39.81;96844.22;5155661;27;20520;-64
2023/10/30 10:01:37;;;;;;;30.48;28.20;;;;;;;25.63;39.59;96838.91;5156063;27;20049;-62
2023/10/30 10:04:04;;;;;;;32.50;29.85;;;;;;;25.48;39.77;96836.69;5155565;27;20047;-62
2023/10/30 10:06:33;;;;;;;32.25;29.77;;;;;;;25.36;39.84;96835.16;5155624;27;20091;-63
2023/10/30 10:09:04;;;;;;;31.20;28.42;;;;;;;25.28;40.23;96830.50;5155536;27;20126;-64
2023/10/30 10:11:36;;;;;;;31.27;28.17;;;;;;;25.29;40.24;96826.88;5155479;27;20051;-64
2023/10/30 10:14:04;;;;;;;32.03;29.60;;;;;;;25.39;39.99;96825.97;5155324;27;20568;-63
2023/10/30 10:16:31;;;;;;;29.65;27.10;;;;;;;25.34;40.08;96823.72;5155382;27;20047;-64
2023/10/30 10:18:58;;;;;;;30.35;27.92;;;;;;;25.33;40.56;96830.09;5155243;27;20057;-62
2023/10/30 10:21:26;;;;;;;30.85;28.33;;;;;;;25.36;40.98;96822.63;5155237;27;20046;-63
2023/10/30 10:23:54;;;;;;;32.05;29.33;;;;;;;25.39;40.70;96826.84;5155352;27;20074;-63
2023/10/30 10:26:30;;;;;;;29.65;27.38;;;;;;;25.29;40.89;96824.19;5155087;27;20103;-62
2023/10/30 10:28:57;;;;;;;30.30;27.70;;;;;;;25.21;40.91;96826.72;5155167;27;20043;-64
2023/10/30 10:31:25;;;;;;;31.55;29.17;;;;;;;25.20;40.82;96825.06;5155031;27;20074;-62
2023/10/30 10:33:54;;;;;;;33.13;30.48;;;;;;;25.06;41.22;96816.47;5155142;27;20096;-64
2023/10/30 10:36:21;;;;;;;31.40;28.58;;;;;;;25.14;40.61;96820.28;5155123;27;20046;-62
2023/10/30 10:38:59;;;;;;;32.90;30.42;;;;;;;25.10;40.49;96815.19;5154681;27;20373;-62
2023/10/30 10:41:27;;;;;;;34.03;31.30;;;;;;;24.90;41.06;96810.88;5154994;27;20125;-64
2023/10/30 10:43:56;;;;;;;32.13;29.23;;;;;;;24.89;40.83;96812.69;5155018;27;20449;-63
2023/10/30 10:46:23;;;;;;;34.20;31.67;;;;;;;24.67;40.80;96806.63;5154893;27;20042;-64
2023/10/30 10:48:50;;;;;;;36.80;33.45;;;;;;;24.30;41.68;96805.50;5154881;27;20050;-62
2023/10/30 10:51:31;;;;;;;35.53;33.10;;;;;;;24.25;42.47;96802.38;5154835;27;20044;-64
2023/10/30 10:54:06;;;;;;;36.75;34.15;;;;;;;24.40;42.55;96810.84;5154936;27;20038;-64
2023/10/30 10:56:38;;;;;;;39.25;36.38;;;;;;;24.53;42.27;96799.84;5154815;27;20560;-64
2023/10/30 10:59:10;;;;;;;39.25;35.90;;;;;;;24.65;41.69;96797.91;5154782;27;20042;-62
2023/10/30 11:01:42;;;;;;;36.13;33.58;;;;;;;24.63;41.59;96797.22;5154700;27;20071;-64
2023/10/30 11:04:10;;;;;;;37.50;34.80;;;;;;;24.42;41.88;96792.00;5154835;27;20054;-64
2023/10/30 11:06:42;;;;;;;38.63;35.65;;;;;;;24.32;42.23;96790.16;5154630;27;20040;-64
2023/10/30 11:09:16;;;;;;;38.90;36.13;;;;;;;24.34;42.37;96782.84;5154628;27;20485;-63
2023/10/30 11:11:54;;;;;;;39.35;36.53;;;;;;;24.46;41.87;96788.03;5154697;27;20053;-62